sensor_id;sensor_type;location;lat;lon;timestamp;P1;durP1;ratioP1;P2;durP2;ratioP2
22549;SDS011;11441;57.164;-2.120;2022-11-20T00:01:30;13.10;;;2.63;;
22549;SDS011;11441;57.164;-2.120;2022-11-20T00:03:57;11.27;;;2.13;;
22549;SDS011;11441;57.164;-2.120;2022-11-20T00:06:25;15.00;;;3.47;;
22549;SDS011;11441;57.164;-2.120;2022-11-20T00:11:38;15.50;;;3.55;;
22549;SDS011;11441;57.164;-2.120;2022-11-20T00:16:50;10.80;;;2.30;;
22549;SDS011;11441;57.164;-2.120;2022-11-20T00:19:17;17.38;;;2.72;;
22549;SDS011;11441;57.164;-2.120;2022-11-20T00:21:45;14.20;;;2.55;;
22549;SDS011;11441;57.164;-2.120;2022-11-20T00:24:12;11.82;;;2.50;;
22549;SDS011;11441;57.164;-2.120;2022-11-20T00:26:39;10.77;;;2.67;;
22549;SDS011;11441;57.164;-2.120;2022-11-20T00:29:08;9.93;;;2.80;;
22549;SDS011;11441;57.164;-2.120;2022-11-20T00:31:36;10.40;;;2.05;;
22549;SDS011;11441;57.164;-2.120;2022-11-20T00:34:03;6.82;;;1.55;;
22549;SDS011;11441;57.164;-2.120;2022-11-20T00:36:31;8.27;;;2.10;;
22549;SDS011;11441;57.164;-2.120;2022-11-20T00:38:59;12.57;;;2.03;;
22549;SDS011;11441;57.164;-2.120;2022-11-20T00:41:26;21.48;;;2.80;;
22549;SDS011;11441;57.164;-2.120;2022-11-20T00:43:55;10.68;;;2.65;;
22549;SDS011;11441;57.164;-2.120;2022-11-20T00:46:23;13.98;;;2.45;;
22549;SDS011;11441;57.164;-2.120;2022-11-20T00:48:51;15.15;;;2.65;;
22549;SDS011;11441;57.164;-2.120;2022-11-20T00:51:19;15.60;;;2.60;;
22549;SDS011;11441;57.164;-2.120;2022-11-20T00:54:06;16.70;;;2.67;;
22549;SDS011;11441;57.164;-2.120;2022-11-20T00:56:33;17.40;;;2.38;;
22549;SDS011;11441;57.164;-2.120;2022-11-20T00:59:00;13.35;;;2.88;;
22549;SDS011;11441;57.164;-2.120;2022-11-20T01:01:27;10.00;;;2.03;;
22549;SDS011;11441;57.164;-2.120;2022-11-20T01:03:58;12.15;;;3.28;;
22549;SDS011;11441;57.164;-2.120;2022-11-20T01:06:27;17.63;;;2.50;;
22549;SDS011;11441;57.164;-2.120;2022-11-20T01:09:04;12.15;;;2.38;;
22549;SDS011;11441;57.164;-2.120;2022-11-20T01:11:37;10.43;;;2.63;;
22549;SDS011;11441;57.164;-2.120;2022-11-20T01:14:07;12.32;;;2.30;;
22549;SDS011;11441;57.164;-2.120;2022-11-20T01:16:39;11.55;;;2.63;;
22549;SDS011;11441;57.164;-2.120;2022-11-20T01:19:10;9.65;;;1.95;;
22549;SDS011;11441;57.164;-2.120;2022-11-20T01:21:44;14.45;;;3.35;;
22549;SDS011;11441;57.164;-2.120;2022-11-20T01:24:29;11.25;;;3.08;;
22549;SDS011;11441;57.164;-2.120;2022-11-20T01:26:56;11.55;;;2.15;;
22549;SDS011;11441;57.164;-2.120;2022-11-20T01:29:23;7.80;;;1.63;;
22549;SDS011;11441;57.164;-2.120;2022-11-20T01:31:51;8.18;;;2.10;;
22549;SDS011;11441;57.164;-2.120;2022-11-20T01:34:19;14.32;;;3.50;;
22549;SDS011;11441;57.164;-2.120;2022-11-20T01:36:47;12.45;;;2.33;;
22549;SDS011;11441;57.164;-2.120;2022-11-20T01:39:19;7.95;;;2.00;;
22549;SDS011;11441;57.164;-2.120;2022-11-20T01:41:48;20.42;;;3.22;;
22549;SDS011;11441;57.164;-2.120;2022-11-20T01:44:52;14.75;;;2.75;;
22549;SDS011;11441;57.164;-2.120;2022-11-20T01:47:34;12.93;;;3.50;;
22549;SDS011;11441;57.164;-2.120;2022-11-20T01:50:06;19.70;;;3.80;;
22549;SDS011;11441;57.164;-2.120;2022-11-20T01:52:42;20.52;;;2.97;;
22549;SDS011;11441;57.164;-2.120;2022-11-20T01:55:20;15.52;;;2.97;;
22549;SDS011;11441;57.164;-2.120;2022-11-20T01:57:52;12.25;;;2.70;;
22549;SDS011;11441;57.164;-2.120;2022-11-20T02:00:19;17.88;;;3.70;;
22549;SDS011;11441;57.164;-2.120;2022-11-20T02:02:49;15.30;;;3.05;;
22549;SDS011;11441;57.164;-2.120;2022-11-20T02:05:24;18.48;;;3.38;;
22549;SDS011;11441;57.164;-2.120;2022-11-20T02:07:55;18.98;;;3.75;;
22549;SDS011;11441;57.164;-2.120;2022-11-20T02:10:24;22.17;;;3.08;;
22549;SDS011;11441;57.164;-2.120;2022-11-20T02:12:52;14.98;;;2.90;;
22549;SDS011;11441;57.164;-2.120;2022-11-20T02:15:37;16.75;;;2.92;;
22549;SDS011;11441;57.164;-2.120;2022-11-20T02:18:04;11.85;;;2.80;;
22549;SDS011;11441;57.164;-2.120;2022-11-20T02:20:32;15.90;;;3.15;;
22549;SDS011;11441;57.164;-2.120;2022-11-20T02:23:13;11.73;;;3.28;;
22549;SDS011;11441;57.164;-2.120;2022-11-20T02:26:04;16.75;;;2.75;;
22549;SDS011;11441;57.164;-2.120;2022-11-20T02:28:35;14.13;;;2.20;;
22549;SDS011;11441;57.164;-2.120;2022-11-20T02:31:02;15.20;;;2.92;;
22549;SDS011;11441;57.164;-2.120;2022-11-20T02:33:29;10.82;;;2.67;;
22549;SDS011;11441;57.164;-2.120;2022-11-20T02:35:56;15.23;;;2.75;;
22549;SDS011;11441;57.164;-2.120;2022-11-20T02:38:23;14.27;;;2.42;;
22549;SDS011;11441;57.164;-2.120;2022-11-20T02:40:50;11.52;;;2.47;;
22549;SDS011;11441;57.164;-2.120;2022-11-20T02:43:22;12.77;;;2.75;;
22549;SDS011;11441;57.164;-2.120;2022-11-20T02:45:49;11.30;;;2.53;;
22549;SDS011;11441;57.164;-2.120;2022-11-20T02:48:15;9.10;;;2.20;;
22549;SDS011;11441;57.164;-2.120;2022-11-20T02:50:42;9.93;;;1.98;;
22549;SDS011;11441;57.164;-2.120;2022-11-20T02:53:09;8.93;;;2.20;;
22549;SDS011;11441;57.164;-2.120;2022-11-20T02:55:36;9.43;;;2.13;;
22549;SDS011;11441;57.164;-2.120;2022-11-20T02:58:03;9.45;;;2.50;;
22549;SDS011;11441;57.164;-2.120;2022-11-20T03:00:30;11.70;;;2.47;;
22549;SDS011;11441;57.164;-2.120;2022-11-20T03:02:58;14.15;;;3.25;;
22549;SDS011;11441;57.164;-2.120;2022-11-20T03:05:25;8.85;;;2.53;;
22549;SDS011;11441;57.164;-2.120;2022-11-20T03:07:51;12.00;;;2.30;;
22549;SDS011;11441;57.164;-2.120;2022-11-20T03:10:18;17.85;;;3.55;;
22549;SDS011;11441;57.164;-2.120;2022-11-20T03:12:45;13.95;;;2.83;;
22549;SDS011;11441;57.164;-2.120;2022-11-20T03:15:11;7.53;;;1.88;;
22549;SDS011;11441;57.164;-2.120;2022-11-20T03:17:38;12.27;;;2.58;;
22549;SDS011;11441;57.164;-2.120;2022-11-20T03:20:05;13.13;;;3.35;;
22549;SDS011;11441;57.164;-2.120;2022-11-20T03:22:33;14.45;;;2.28;;
22549;SDS011;11441;57.164;-2.120;2022-11-20T03:24:59;13.77;;;3.72;;
22549;SDS011;11441;57.164;-2.120;2022-11-20T03:27:26;14.85;;;2.88;;
22549;SDS011;11441;57.164;-2.120;2022-11-20T03:29:53;14.40;;;3.10;;
22549;SDS011;11441;57.164;-2.120;2022-11-20T03:32:20;17.40;;;3.42;;
22549;SDS011;11441;57.164;-2.120;2022-11-20T03:34:46;17.88;;;3.58;;
22549;SDS011;11441;57.164;-2.120;2022-11-20T03:37:13;15.57;;;2.95;;
22549;SDS011;11441;57.164;-2.120;2022-11-20T03:39:40;15.55;;;2.80;;
22549;SDS011;11441;57.164;-2.120;2022-11-20T03:42:07;9.02;;;2.85;;
22549;SDS011;11441;57.164;-2.120;2022-11-20T03:44:54;17.85;;;4.00;;
22549;SDS011;11441;57.164;-2.120;2022-11-20T03:47:21;17.20;;;3.72;;
22549;SDS011;11441;57.164;-2.120;2022-11-20T03:49:48;12.82;;;2.63;;
22549;SDS011;11441;57.164;-2.120;2022-11-20T03:52:15;16.98;;;3.25;;
22549;SDS011;11441;57.164;-2.120;2022-11-20T03:54:42;13.18;;;2.42;;
22549;SDS011;11441;57.164;-2.120;2022-11-20T03:57:09;5.45;;;1.00;;
22549;SDS011;11441;57.164;-2.120;2022-11-20T03:59:36;5.97;;;1.35;;
22549;SDS011;11441;57.164;-2.120;2022-11-20T04:02:02;12.10;;;2.10;;
22549;SDS011;11441;57.164;-2.120;2022-11-20T04:04:29;7.10;;;1.60;;
22549;SDS011;11441;57.164;-2.120;2022-11-20T04:06:56;10.13;;;2.03;;
22549;SDS011;11441;57.164;-2.120;2022-11-20T04:09:23;5.55;;;1.23;;
22549;SDS011;11441;57.164;-2.120;2022-11-20T04:11:50;8.05;;;1.23;;
22549;SDS011;11441;57.164;-2.120;2022-11-20T04:14:16;8.60;;;1.15;;
22549;SDS011;11441;57.164;-2.120;2022-11-20T04:16:43;2.13;;;0.90;;
22549;SDS011;11441;57.164;-2.120;2022-11-20T04:19:11;10.32;;;1.65;;
22549;SDS011;11441;57.164;-2.120;2022-11-20T04:21:40;12.07;;;2.28;;
22549;SDS011;11441;57.164;-2.120;2022-11-20T04:24:08;4.90;;;1.33;;
22549;SDS011;11441;57.164;-2.120;2022-11-20T04:26:35;5.75;;;1.30;;
22549;SDS011;11441;57.164;-2.120;2022-11-20T04:29:02;5.75;;;1.25;;
22549;SDS011;11441;57.164;-2.120;2022-11-20T04:31:31;6.32;;;1.38;;
22549;SDS011;11441;57.164;-2.120;2022-11-20T04:36:45;9.30;;;2.22;;
22549;SDS011;11441;57.164;-2.120;2022-11-20T04:39:12;13.77;;;1.80;;
22549;SDS011;11441;57.164;-2.120;2022-11-20T04:41:41;5.60;;;1.58;;
22549;SDS011;11441;57.164;-2.120;2022-11-20T04:44:08;6.17;;;1.50;;
22549;SDS011;11441;57.164;-2.120;2022-11-20T04:46:36;6.43;;;1.30;;
22549;SDS011;11441;57.164;-2.120;2022-11-20T04:49:08;6.17;;;1.47;;
22549;SDS011;11441;57.164;-2.120;2022-11-20T04:51:39;6.13;;;1.33;;
22549;SDS011;11441;57.164;-2.120;2022-11-20T04:54:06;5.07;;;1.50;;
22549;SDS011;11441;57.164;-2.120;2022-11-20T04:56:51;5.95;;;1.65;;
22549;SDS011;11441;57.164;-2.120;2022-11-20T04:59:18;5.30;;;1.07;;
22549;SDS011;11441;57.164;-2.120;2022-11-20T05:01:46;10.47;;;1.77;;
22549;SDS011;11441;57.164;-2.120;2022-11-20T05:04:12;5.97;;;2.00;;
22549;SDS011;11441;57.164;-2.120;2022-11-20T05:06:39;8.10;;;1.57;;
22549;SDS011;11441;57.164;-2.120;2022-11-20T05:09:06;12.00;;;1.30;;
22549;SDS011;11441;57.164;-2.120;2022-11-20T05:11:33;8.40;;;1.60;;
22549;SDS011;11441;57.164;-2.120;2022-11-20T05:14:18;9.73;;;1.50;;
22549;SDS011;11441;57.164;-2.120;2022-11-20T05:16:45;8.53;;;1.20;;
22549;SDS011;11441;57.164;-2.120;2022-11-20T05:19:12;4.03;;;1.03;;
22549;SDS011;11441;57.164;-2.120;2022-11-20T05:21:39;7.67;;;1.30;;
22549;SDS011;11441;57.164;-2.120;2022-11-20T05:24:05;6.97;;;1.13;;
22549;SDS011;11441;57.164;-2.120;2022-11-20T05:26:33;3.80;;;1.20;;
22549;SDS011;11441;57.164;-2.120;2022-11-20T05:29:00;3.08;;;0.98;;
22549;SDS011;11441;57.164;-2.120;2022-11-20T05:31:27;5.93;;;0.90;;
22549;SDS011;11441;57.164;-2.120;2022-11-20T05:33:54;8.73;;;0.77;;
22549;SDS011;11441;57.164;-2.120;2022-11-20T05:36:22;2.23;;;0.60;;
22549;SDS011;11441;57.164;-2.120;2022-11-20T05:38:50;2.07;;;0.73;;
22549;SDS011;11441;57.164;-2.120;2022-11-20T05:41:20;4.03;;;0.60;;
22549;SDS011;11441;57.164;-2.120;2022-11-20T05:43:48;5.27;;;1.33;;
22549;SDS011;11441;57.164;-2.120;2022-11-20T05:46:17;5.07;;;1.43;;
22549;SDS011;11441;57.164;-2.120;2022-11-20T05:48:53;7.40;;;1.23;;
22549;SDS011;11441;57.164;-2.120;2022-11-20T05:51:20;9.18;;;1.10;;
22549;SDS011;11441;57.164;-2.120;2022-11-20T05:53:47;10.37;;;2.47;;
22549;SDS011;11441;57.164;-2.120;2022-11-20T05:56:17;4.93;;;1.20;;
22549;SDS011;11441;57.164;-2.120;2022-11-20T05:58:45;9.83;;;1.90;;
22549;SDS011;11441;57.164;-2.120;2022-11-20T06:01:14;5.47;;;1.57;;
22549;SDS011;11441;57.164;-2.120;2022-11-20T06:03:43;6.93;;;1.30;;
22549;SDS011;11441;57.164;-2.120;2022-11-20T06:06:14;4.83;;;1.37;;
22549;SDS011;11441;57.164;-2.120;2022-11-20T06:08:41;9.07;;;1.70;;
22549;SDS011;11441;57.164;-2.120;2022-11-20T06:11:10;2.47;;;0.90;;
22549;SDS011;11441;57.164;-2.120;2022-11-20T06:16:42;2.40;;;0.83;;
22549;SDS011;11441;57.164;-2.120;2022-11-20T06:19:27;9.87;;;1.57;;
22549;SDS011;11441;57.164;-2.120;2022-11-20T06:21:54;5.60;;;1.50;;
22549;SDS011;11441;57.164;-2.120;2022-11-20T06:24:21;4.57;;;1.10;;
22549;SDS011;11441;57.164;-2.120;2022-11-20T06:26:49;7.15;;;1.35;;
22549;SDS011;11441;57.164;-2.120;2022-11-20T06:29:15;6.97;;;1.33;;
22549;SDS011;11441;57.164;-2.120;2022-11-20T06:31:42;3.57;;;1.13;;
22549;SDS011;11441;57.164;-2.120;2022-11-20T06:34:09;2.97;;;1.00;;
22549;SDS011;11441;57.164;-2.120;2022-11-20T06:36:36;4.93;;;1.20;;
22549;SDS011;11441;57.164;-2.120;2022-11-20T06:39:02;4.60;;;1.57;;
22549;SDS011;11441;57.164;-2.120;2022-11-20T06:41:29;6.13;;;1.27;;
22549;SDS011;11441;57.164;-2.120;2022-11-20T06:44:19;6.27;;;1.07;;
22549;SDS011;11441;57.164;-2.120;2022-11-20T06:47:05;5.70;;;1.17;;
22549;SDS011;11441;57.164;-2.120;2022-11-20T06:52:17;6.47;;;1.03;;
22549;SDS011;11441;57.164;-2.120;2022-11-20T06:54:44;7.10;;;1.50;;
22549;SDS011;11441;57.164;-2.120;2022-11-20T06:57:10;10.70;;;1.43;;
22549;SDS011;11441;57.164;-2.120;2022-11-20T06:59:37;2.93;;;1.00;;
22549;SDS011;11441;57.164;-2.120;2022-11-20T07:02:04;7.10;;;1.30;;
22549;SDS011;11441;57.164;-2.120;2022-11-20T07:04:31;5.80;;;1.07;;
22549;SDS011;11441;57.164;-2.120;2022-11-20T07:06:58;6.67;;;1.67;;
22549;SDS011;11441;57.164;-2.120;2022-11-20T07:09:25;7.80;;;1.37;;
22549;SDS011;11441;57.164;-2.120;2022-11-20T07:11:52;7.07;;;1.30;;
22549;SDS011;11441;57.164;-2.120;2022-11-20T07:14:19;5.43;;;1.20;;
22549;SDS011;11441;57.164;-2.120;2022-11-20T07:16:46;10.98;;;1.67;;
22549;SDS011;11441;57.164;-2.120;2022-11-20T07:19:12;5.65;;;1.83;;
22549;SDS011;11441;57.164;-2.120;2022-11-20T07:21:39;8.30;;;1.50;;
22549;SDS011;11441;57.164;-2.120;2022-11-20T07:24:06;7.73;;;1.30;;
22549;SDS011;11441;57.164;-2.120;2022-11-20T07:26:50;10.70;;;1.63;;
22549;SDS011;11441;57.164;-2.120;2022-11-20T07:29:17;5.10;;;1.33;;
22549;SDS011;11441;57.164;-2.120;2022-11-20T07:34:30;9.87;;;1.40;;
22549;SDS011;11441;57.164;-2.120;2022-11-20T07:36:57;9.93;;;1.67;;
22549;SDS011;11441;57.164;-2.120;2022-11-20T07:39:24;7.70;;;2.07;;
22549;SDS011;11441;57.164;-2.120;2022-11-20T07:41:50;4.83;;;1.63;;
22549;SDS011;11441;57.164;-2.120;2022-11-20T07:44:17;7.10;;;1.00;;
22549;SDS011;11441;57.164;-2.120;2022-11-20T07:46:44;5.13;;;1.10;;
22549;SDS011;11441;57.164;-2.120;2022-11-20T07:49:11;7.93;;;1.00;;
22549;SDS011;11441;57.164;-2.120;2022-11-20T07:51:49;3.67;;;0.90;;
22549;SDS011;11441;57.164;-2.120;2022-11-20T07:54:17;5.03;;;1.37;;
22549;SDS011;11441;57.164;-2.120;2022-11-20T07:56:44;8.00;;;1.03;;
22549;SDS011;11441;57.164;-2.120;2022-11-20T07:59:28;8.03;;;0.97;;
22549;SDS011;11441;57.164;-2.120;2022-11-20T08:04:58;6.40;;;1.13;;
22549;SDS011;11441;57.164;-2.120;2022-11-20T08:10:12;2.83;;;1.07;;
22549;SDS011;11441;57.164;-2.120;2022-11-20T08:12:49;2.50;;;0.70;;
22549;SDS011;11441;57.164;-2.120;2022-11-20T08:15:35;4.27;;;0.70;;
22549;SDS011;11441;57.164;-2.120;2022-11-20T08:18:10;6.07;;;0.70;;
22549;SDS011;11441;57.164;-2.120;2022-11-20T08:20:58;3.70;;;0.70;;
22549;SDS011;11441;57.164;-2.120;2022-11-20T08:26:14;4.23;;;0.60;;
22549;SDS011;11441;57.164;-2.120;2022-11-20T08:28:41;1.87;;;0.67;;
22549;SDS011;11441;57.164;-2.120;2022-11-20T08:31:08;1.90;;;0.80;;
22549;SDS011;11441;57.164;-2.120;2022-11-20T08:33:36;1.43;;;0.47;;
22549;SDS011;11441;57.164;-2.120;2022-11-20T08:38:50;4.27;;;1.07;;
22549;SDS011;11441;57.164;-2.120;2022-11-20T08:41:18;3.47;;;0.90;;
22549;SDS011;11441;57.164;-2.120;2022-11-20T08:43:54;6.57;;;0.50;;
22549;SDS011;11441;57.164;-2.120;2022-11-20T08:49:12;4.60;;;0.57;;
22549;SDS011;11441;57.164;-2.120;2022-11-20T08:51:40;5.97;;;0.73;;
22549;SDS011;11441;57.164;-2.120;2022-11-20T08:54:08;3.20;;;0.43;;
22549;SDS011;11441;57.164;-2.120;2022-11-20T08:56:35;5.73;;;0.83;;
22549;SDS011;11441;57.164;-2.120;2022-11-20T08:59:02;1.70;;;0.77;;
22549;SDS011;11441;57.164;-2.120;2022-11-20T09:04:53;5.53;;;1.30;;
22549;SDS011;11441;57.164;-2.120;2022-11-20T09:07:20;8.47;;;1.13;;
22549;SDS011;11441;57.164;-2.120;2022-11-20T09:09:47;5.30;;;1.27;;
22549;SDS011;11441;57.164;-2.120;2022-11-20T09:12:34;5.43;;;0.87;;
22549;SDS011;11441;57.164;-2.120;2022-11-20T09:15:01;2.37;;;0.67;;
22549;SDS011;11441;57.164;-2.120;2022-11-20T09:17:27;3.10;;;1.23;;
22549;SDS011;11441;57.164;-2.120;2022-11-20T09:19:54;2.10;;;0.60;;
22549;SDS011;11441;57.164;-2.120;2022-11-20T09:22:21;0.87;;;0.60;;
22549;SDS011;11441;57.164;-2.120;2022-11-20T09:24:48;7.10;;;0.60;;
22549;SDS011;11441;57.164;-2.120;2022-11-20T09:27:15;7.97;;;0.83;;
22549;SDS011;11441;57.164;-2.120;2022-11-20T09:30:05;5.53;;;0.60;;
22549;SDS011;11441;57.164;-2.120;2022-11-20T09:32:32;4.83;;;0.57;;
22549;SDS011;11441;57.164;-2.120;2022-11-20T09:34:59;5.20;;;0.60;;
22549;SDS011;11441;57.164;-2.120;2022-11-20T09:37:30;9.23;;;1.17;;
22549;SDS011;11441;57.164;-2.120;2022-11-20T09:39:57;5.40;;;0.80;;
22549;SDS011;11441;57.164;-2.120;2022-11-20T09:42:37;5.43;;;0.90;;
22549;SDS011;11441;57.164;-2.120;2022-11-20T09:45:12;3.33;;;0.80;;
22549;SDS011;11441;57.164;-2.120;2022-11-20T09:53:09;6.20;;;0.85;;
22549;SDS011;11441;57.164;-2.120;2022-11-20T09:55:39;2.72;;;0.50;;
22549;SDS011;11441;57.164;-2.120;2022-11-20T09:58:07;4.40;;;1.07;;
22549;SDS011;11441;57.164;-2.120;2022-11-20T10:00:42;4.30;;;1.00;;
22549;SDS011;11441;57.164;-2.120;2022-11-20T10:03:14;2.97;;;0.87;;
22549;SDS011;11441;57.164;-2.120;2022-11-20T10:05:51;3.50;;;0.70;;
22549;SDS011;11441;57.164;-2.120;2022-11-20T10:08:21;7.43;;;1.77;;
22549;SDS011;11441;57.164;-2.120;2022-11-20T10:13:41;5.63;;;1.03;;
22549;SDS011;11441;57.164;-2.120;2022-11-20T10:21:45;4.17;;;0.83;;
22549;SDS011;11441;57.164;-2.120;2022-11-20T10:27:09;6.00;;;0.90;;
22549;SDS011;11441;57.164;-2.120;2022-11-20T10:29:59;2.17;;;0.70;;
22549;SDS011;11441;57.164;-2.120;2022-11-20T10:32:41;7.60;;;0.88;;
22549;SDS011;11441;57.164;-2.120;2022-11-20T10:35:14;3.20;;;0.97;;
22549;SDS011;11441;57.164;-2.120;2022-11-20T10:37:48;3.17;;;0.57;;
22549;SDS011;11441;57.164;-2.120;2022-11-20T10:40:22;3.30;;;0.70;;
22549;SDS011;11441;57.164;-2.120;2022-11-20T10:43:08;4.50;;;1.00;;
22549;SDS011;11441;57.164;-2.120;2022-11-20T10:45:56;8.83;;;1.27;;
22549;SDS011;11441;57.164;-2.120;2022-11-20T10:54:19;7.68;;;1.30;;
22549;SDS011;11441;57.164;-2.120;2022-11-20T10:56:56;1.60;;;0.40;;
22549;SDS011;11441;57.164;-2.120;2022-11-20T11:02:34;2.17;;;0.60;;
22549;SDS011;11441;57.164;-2.120;2022-11-20T11:05:51;8.40;;;0.80;;
22549;SDS011;11441;57.164;-2.120;2022-11-20T11:08:22;4.20;;;0.70;;
22549;SDS011;11441;57.164;-2.120;2022-11-20T11:10:51;4.28;;;1.10;;
22549;SDS011;11441;57.164;-2.120;2022-11-20T11:13:28;3.50;;;1.10;;
22549;SDS011;11441;57.164;-2.120;2022-11-20T11:15:57;4.35;;;1.10;;
22549;SDS011;11441;57.164;-2.120;2022-11-20T11:18:32;7.63;;;1.60;;
22549;SDS011;11441;57.164;-2.120;2022-11-20T11:24:15;5.50;;;1.38;;
22549;SDS011;11441;57.164;-2.120;2022-11-20T11:27:13;7.13;;;1.40;;
22549;SDS011;11441;57.164;-2.120;2022-11-20T11:29:44;2.60;;;0.97;;
22549;SDS011;11441;57.164;-2.120;2022-11-20T11:32:17;5.67;;;1.30;;
22549;SDS011;11441;57.164;-2.120;2022-11-20T11:35:03;3.92;;;1.33;;
22549;SDS011;11441;57.164;-2.120;2022-11-20T11:37:33;7.38;;;1.88;;
22549;SDS011;11441;57.164;-2.120;2022-11-20T11:40:03;6.63;;;1.55;;
22549;SDS011;11441;57.164;-2.120;2022-11-20T11:42:52;3.90;;;1.73;;
22549;SDS011;11441;57.164;-2.120;2022-11-20T11:45:23;9.07;;;1.85;;
22549;SDS011;11441;57.164;-2.120;2022-11-20T11:47:50;4.70;;;1.83;;
22549;SDS011;11441;57.164;-2.120;2022-11-20T11:50:22;4.93;;;1.80;;
22549;SDS011;11441;57.164;-2.120;2022-11-20T11:55:44;5.97;;;2.05;;
22549;SDS011;11441;57.164;-2.120;2022-11-20T12:01:10;3.65;;;2.03;;
22549;SDS011;11441;57.164;-2.120;2022-11-20T12:04:00;5.43;;;2.05;;
22549;SDS011;11441;57.164;-2.120;2022-11-20T12:06:30;5.95;;;1.88;;
22549;SDS011;11441;57.164;-2.120;2022-11-20T12:09:01;4.88;;;2.10;;
22549;SDS011;11441;57.164;-2.120;2022-11-20T12:11:32;3.55;;;1.80;;
22549;SDS011;11441;57.164;-2.120;2022-11-20T12:14:16;4.70;;;1.85;;
22549;SDS011;11441;57.164;-2.120;2022-11-20T12:16:50;5.45;;;2.10;;
22549;SDS011;11441;57.164;-2.120;2022-11-20T12:19:19;4.10;;;1.50;;
22549;SDS011;11441;57.164;-2.120;2022-11-20T12:43:33;3.28;;;1.58;;
22549;SDS011;11441;57.164;-2.120;2022-11-20T12:51:52;5.38;;;1.50;;
22549;SDS011;11441;57.164;-2.120;2022-11-20T12:54:36;1.33;;;1.23;;
22549;SDS011;11441;57.164;-2.120;2022-11-20T13:00:09;3.58;;;1.63;;
22549;SDS011;11441;57.164;-2.120;2022-11-20T13:06:17;3.63;;;1.77;;
22549;SDS011;11441;57.164;-2.120;2022-11-20T13:08:48;3.63;;;1.40;;
22549;SDS011;11441;57.164;-2.120;2022-11-20T13:17:03;4.63;;;1.50;;
22549;SDS011;11441;57.164;-2.120;2022-11-20T13:19:36;5.18;;;1.50;;
22549;SDS011;11441;57.164;-2.120;2022-11-20T13:22:03;2.10;;;1.65;;
22549;SDS011;11441;57.164;-2.120;2022-11-20T13:24:31;3.65;;;1.70;;
22549;SDS011;11441;57.164;-2.120;2022-11-20T13:29:32;3.33;;;1.35;;
22549;SDS011;11441;57.164;-2.120;2022-11-20T13:32:24;1.80;;;1.63;;
22549;SDS011;11441;57.164;-2.120;2022-11-20T13:34:54;7.35;;;2.35;;
22549;SDS011;11441;57.164;-2.120;2022-11-20T13:45:21;3.22;;;1.20;;
22549;SDS011;11441;57.164;-2.120;2022-11-20T13:47:49;4.18;;;1.10;;
22549;SDS011;11441;57.164;-2.120;2022-11-20T13:50:18;6.57;;;0.90;;
22549;SDS011;11441;57.164;-2.120;2022-11-20T13:58:20;1.63;;;0.90;;
22549;SDS011;11441;57.164;-2.120;2022-11-20T14:01:15;3.33;;;1.70;;
22549;SDS011;11441;57.164;-2.120;2022-11-20T14:03:46;1.63;;;0.80;;
22549;SDS011;11441;57.164;-2.120;2022-11-20T14:06:44;3.25;;;1.45;;
22549;SDS011;11441;57.164;-2.120;2022-11-20T14:09:24;1.00;;;0.73;;
22549;SDS011;11441;57.164;-2.120;2022-11-20T14:11:53;1.98;;;0.65;;
22549;SDS011;11441;57.164;-2.120;2022-11-20T14:17:33;6.45;;;1.20;;
22549;SDS011;11441;57.164;-2.120;2022-11-20T14:20:05;3.13;;;1.30;;
22549;SDS011;11441;57.164;-2.120;2022-11-20T14:22:38;3.53;;;0.85;;
22549;SDS011;11441;57.164;-2.120;2022-11-20T14:25:06;3.88;;;1.08;;
22549;SDS011;11441;57.164;-2.120;2022-11-20T14:27:45;3.33;;;1.00;;
22549;SDS011;11441;57.164;-2.120;2022-11-20T14:30:17;2.22;;;1.13;;
22549;SDS011;11441;57.164;-2.120;2022-11-20T14:33:05;8.80;;;1.85;;
22549;SDS011;11441;57.164;-2.120;2022-11-20T14:35:35;3.42;;;1.13;;
22549;SDS011;11441;57.164;-2.120;2022-11-20T14:38:08;5.25;;;1.33;;
22549;SDS011;11441;57.164;-2.120;2022-11-20T14:40:38;2.22;;;1.10;;
22549;SDS011;11441;57.164;-2.120;2022-11-20T14:43:24;2.40;;;1.33;;
22549;SDS011;11441;57.164;-2.120;2022-11-20T14:45:55;2.67;;;1.50;;
22549;SDS011;11441;57.164;-2.120;2022-11-20T14:48:31;3.10;;;0.98;;
22549;SDS011;11441;57.164;-2.120;2022-11-20T14:51:11;4.20;;;1.58;;
22549;SDS011;11441;57.164;-2.120;2022-11-20T14:53:49;4.20;;;2.10;;
22549;SDS011;11441;57.164;-2.120;2022-11-20T14:56:23;6.72;;;1.92;;
22549;SDS011;11441;57.164;-2.120;2022-11-20T14:58:57;2.63;;;1.50;;
22549;SDS011;11441;57.164;-2.120;2022-11-20T15:01:27;5.75;;;2.42;;
22549;SDS011;11441;57.164;-2.120;2022-11-20T15:04:14;10.52;;;1.95;;
22549;SDS011;11441;57.164;-2.120;2022-11-20T15:06:49;6.97;;;2.03;;
22549;SDS011;11441;57.164;-2.120;2022-11-20T15:09:18;4.37;;;2.00;;
22549;SDS011;11441;57.164;-2.120;2022-11-20T15:11:54;6.63;;;1.77;;
22549;SDS011;11441;57.164;-2.120;2022-11-20T15:14:23;4.60;;;1.67;;
22549;SDS011;11441;57.164;-2.120;2022-11-20T15:16:52;5.63;;;2.40;;
22549;SDS011;11441;57.164;-2.120;2022-11-20T15:19:23;7.37;;;2.27;;
22549;SDS011;11441;57.164;-2.120;2022-11-20T15:21:51;8.27;;;4.00;;
22549;SDS011;11441;57.164;-2.120;2022-11-20T15:24:18;8.97;;;3.60;;
22549;SDS011;11441;57.164;-2.120;2022-11-20T15:26:46;7.22;;;3.08;;
22549;SDS011;11441;57.164;-2.120;2022-11-20T15:29:14;7.43;;;4.10;;
22549;SDS011;11441;57.164;-2.120;2022-11-20T15:31:45;4.13;;;2.50;;
22549;SDS011;11441;57.164;-2.120;2022-11-20T15:34:12;5.07;;;2.70;;
22549;SDS011;11441;57.164;-2.120;2022-11-20T15:36:41;5.60;;;2.00;;
22549;SDS011;11441;57.164;-2.120;2022-11-20T15:39:27;6.67;;;2.40;;
22549;SDS011;11441;57.164;-2.120;2022-11-20T15:41:54;12.30;;;4.15;;
22549;SDS011;11441;57.164;-2.120;2022-11-20T15:44:21;6.83;;;3.70;;
22549;SDS011;11441;57.164;-2.120;2022-11-20T15:49:36;16.80;;;11.10;;
22549;SDS011;11441;57.164;-2.120;2022-11-20T15:52:03;15.43;;;8.55;;
22549;SDS011;11441;57.164;-2.120;2022-11-20T15:54:47;12.57;;;7.43;;
22549;SDS011;11441;57.164;-2.120;2022-11-20T15:57:14;6.33;;;3.37;;
22549;SDS011;11441;57.164;-2.120;2022-11-20T15:59:41;6.67;;;2.67;;
22549;SDS011;11441;57.164;-2.120;2022-11-20T16:02:08;3.97;;;2.43;;
22549;SDS011;11441;57.164;-2.120;2022-11-20T16:04:44;3.57;;;2.40;;
22549;SDS011;11441;57.164;-2.120;2022-11-20T16:07:11;5.60;;;3.30;;
22549;SDS011;11441;57.164;-2.120;2022-11-20T16:09:39;9.83;;;3.77;;
22549;SDS011;11441;57.164;-2.120;2022-11-20T16:12:07;5.27;;;2.70;;
22549;SDS011;11441;57.164;-2.120;2022-11-20T16:14:55;3.73;;;2.53;;
22549;SDS011;11441;57.164;-2.120;2022-11-20T16:17:41;6.90;;;2.43;;
22549;SDS011;11441;57.164;-2.120;2022-11-20T16:20:11;6.43;;;3.37;;
22549;SDS011;11441;57.164;-2.120;2022-11-20T16:22:38;7.57;;;3.73;;
22549;SDS011;11441;57.164;-2.120;2022-11-20T16:25:04;12.13;;;6.53;;
22549;SDS011;11441;57.164;-2.120;2022-11-20T16:27:31;14.80;;;7.60;;
22549;SDS011;11441;57.164;-2.120;2022-11-20T16:29:58;22.00;;;8.57;;
22549;SDS011;11441;57.164;-2.120;2022-11-20T16:32:25;11.53;;;6.17;;
22549;SDS011;11441;57.164;-2.120;2022-11-20T16:37:57;16.87;;;6.87;;
22549;SDS011;11441;57.164;-2.120;2022-11-20T16:40:24;10.43;;;5.67;;
22549;SDS011;11441;57.164;-2.120;2022-11-20T16:42:51;24.17;;;10.90;;
22549;SDS011;11441;57.164;-2.120;2022-11-20T16:48:06;29.03;;;13.20;;
22549;SDS011;11441;57.164;-2.120;2022-11-20T16:50:33;21.23;;;9.50;;
22549;SDS011;11441;57.164;-2.120;2022-11-20T16:53:00;16.80;;;7.40;;
22549;SDS011;11441;57.164;-2.120;2022-11-20T16:55:26;15.17;;;8.03;;
22549;SDS011;11441;57.164;-2.120;2022-11-20T16:57:53;14.73;;;8.57;;
22549;SDS011;11441;57.164;-2.120;2022-11-20T17:00:20;12.60;;;7.13;;
22549;SDS011;11441;57.164;-2.120;2022-11-20T17:02:47;10.53;;;7.07;;
22549;SDS011;11441;57.164;-2.120;2022-11-20T17:05:13;11.40;;;6.93;;
22549;SDS011;11441;57.164;-2.120;2022-11-20T17:07:59;7.10;;;5.03;;
22549;SDS011;11441;57.164;-2.120;2022-11-20T17:13:13;8.17;;;3.93;;